EZY21WT EGKK-EGPH
Flight info
| Callsign | EZY21WT |
|---|---|
| Flight time | 1h 4m |
| Altitude | 27000 |
| Route | LAM1Z LAM L10 BPK UN601 RIBEL DCT INPIP INPIP1E |
| Aircraft | A319/M-SDE3FGHIRWY/LB1 |
Departure
| Time | 2026-04-21 08:35 |
|---|---|
| Airport | London Gatwick Airport (EGKK) |
Arrival
| Time | 2026-04-21 09:40 |
|---|---|
| Airport | Edinburgh Airport (EGPH) |
| Time | Latitude | Longitude | Altitude | Speed | Heading |
|---|---|---|---|---|---|
| 2026-04-21 08:10 | 51.15861 | -0.17941 | 207 ft | 0 kts | 78° |
| 2026-04-21 08:23 | 51.15861 | -0.17942 | 204 ft | 1 kts | 78° |
| 2026-04-21 08:23 | 51.15856 | -0.17979 | 204 ft | 4 kts | 78° |
| 2026-04-21 08:23 | 51.15851 | -0.18013 | 212 ft | 3 kts | 78° |
| 2026-04-21 08:24 | 51.15849 | -0.18054 | 215 ft | 4 kts | 103° |
| 2026-04-21 08:24 | 51.15860 | -0.18084 | 208 ft | 3 kts | 164° |
| 2026-04-21 08:24 | 51.15864 | -0.18085 | 215 ft | 0 kts | 167° |
| 2026-04-21 08:27 | 51.15851 | -0.18081 | 213 ft | 5 kts | 167° |
| 2026-04-21 08:27 | 51.15802 | -0.18064 | 211 ft | 10 kts | 167° |
| 2026-04-21 08:27 | 51.15721 | -0.18037 | 206 ft | 14 kts | 174° |
| 2026-04-21 08:27 | 51.15674 | -0.18132 | 209 ft | 13 kts | 261° |
| 2026-04-21 08:28 | 51.15656 | -0.18275 | 207 ft | 14 kts | 257° |
| 2026-04-21 08:28 | 51.15590 | -0.18347 | 204 ft | 14 kts | 171° |
| 2026-04-21 08:28 | 51.15494 | -0.18314 | 209 ft | 14 kts | 167° |
| 2026-04-21 08:28 | 51.15392 | -0.18277 | 204 ft | 16 kts | 167° |
| 2026-04-21 08:29 | 51.15285 | -0.18240 | 204 ft | 16 kts | 168° |
| 2026-04-21 08:29 | 51.15189 | -0.18261 | 204 ft | 14 kts | 253° |
| 2026-04-21 08:29 | 51.15174 | -0.18417 | 204 ft | 15 kts | 257° |
| 2026-04-21 08:29 | 51.15151 | -0.18578 | 204 ft | 15 kts | 257° |
| 2026-04-21 08:30 | 51.15127 | -0.18748 | 213 ft | 16 kts | 258° |
| 2026-04-21 08:30 | 51.15103 | -0.18924 | 204 ft | 16 kts | 257° |
| 2026-04-21 08:30 | 51.15079 | -0.19100 | 204 ft | 16 kts | 258° |
| 2026-04-21 08:30 | 51.15054 | -0.19281 | 207 ft | 17 kts | 258° |
| 2026-04-21 08:31 | 51.15029 | -0.19464 | 205 ft | 17 kts | 258° |
| 2026-04-21 08:31 | 51.15003 | -0.19656 | 208 ft | 18 kts | 258° |
| 2026-04-21 08:31 | 51.14975 | -0.19854 | 204 ft | 19 kts | 257° |
| 2026-04-21 08:31 | 51.14945 | -0.20062 | 206 ft | 20 kts | 258° |
| 2026-04-21 08:32 | 51.14916 | -0.20279 | 203 ft | 20 kts | 258° |
| 2026-04-21 08:32 | 51.14886 | -0.20501 | 203 ft | 21 kts | 257° |
| 2026-04-21 08:32 | 51.14854 | -0.20730 | 209 ft | 21 kts | 257° |
| 2026-04-21 08:32 | 51.14822 | -0.20963 | 208 ft | 22 kts | 257° |
| 2026-04-21 08:33 | 51.14785 | -0.21184 | 204 ft | 18 kts | 249° |
| 2026-04-21 08:33 | 51.14757 | -0.21367 | 207 ft | 14 kts | 249° |
| 2026-04-21 08:33 | 51.14725 | -0.21403 | 208 ft | 0 kts | 185° |
| 2026-04-21 08:34 | 51.14719 | -0.21404 | 206 ft | 3 kts | 182° |
| 2026-04-21 08:34 | 51.14677 | -0.21384 | 208 ft | 9 kts | 152° |
| 2026-04-21 08:34 | 51.14609 | -0.21321 | 204 ft | 13 kts | 171° |
| 2026-04-21 08:34 | 51.14530 | -0.21248 | 207 ft | 15 kts | 119° |
| 2026-04-21 08:35 | 51.14531 | -0.21086 | 208 ft | 17 kts | 77° |
| 2026-04-21 08:35 | 51.14618 | -0.20483 | 208 ft | 104 kts | 77° |
| 2026-04-21 08:35 | 51.14830 | -0.18955 | 394 ft | 164 kts | 75° |
| 2026-04-21 08:35 | 51.15081 | -0.17130 | 1357 ft | 167 kts | 76° |
| 2026-04-21 08:36 | 51.15330 | -0.15298 | 2330 ft | 177 kts | 76° |
| 2026-04-21 08:36 | 51.15607 | -0.13271 | 2959 ft | 198 kts | 77° |
| 2026-04-21 08:36 | 51.15913 | -0.11034 | 3605 ft | 221 kts | 77° |
| 2026-04-21 08:36 | 51.16256 | -0.08542 | 4245 ft | 237 kts | 76° |
| 2026-04-21 08:37 | 51.16895 | -0.06107 | 4870 ft | 243 kts | 58° |
| 2026-04-21 08:37 | 51.17931 | -0.03934 | 5509 ft | 246 kts | 53° |
| 2026-04-21 08:37 | 51.18986 | -0.01770 | 6142 ft | 249 kts | 53° |
| 2026-04-21 08:37 | 51.20041 | 0.00405 | 6891 ft | 252 kts | 54° |
| 2026-04-21 08:38 | 51.21124 | 0.02644 | 7510 ft | 255 kts | 54° |
| 2026-04-21 08:38 | 51.22219 | 0.04911 | 8139 ft | 258 kts | 53° |
| 2026-04-21 08:38 | 51.23323 | 0.07195 | 8787 ft | 260 kts | 53° |
| 2026-04-21 08:38 | 51.24698 | 0.09040 | 9416 ft | 269 kts | 25° |
| 2026-04-21 08:39 | 51.26573 | 0.09387 | 10066 ft | 280 kts | 352° |
| 2026-04-21 08:39 | 51.28438 | 0.08378 | 10669 ft | 285 kts | 340° |
| 2026-04-21 08:39 | 51.30245 | 0.07032 | 11249 ft | 287 kts | 336° |
| 2026-04-21 08:39 | 51.32039 | 0.05562 | 11835 ft | 290 kts | 335° |
| 2026-04-21 08:40 | 51.33836 | 0.04071 | 12369 ft | 293 kts | 335° |
| 2026-04-21 08:40 | 51.35647 | 0.02598 | 13000 ft | 298 kts | 336° |
| 2026-04-21 08:40 | 51.37512 | 0.01118 | 13644 ft | 300 kts | 338° |
| 2026-04-21 08:40 | 51.39402 | -0.00360 | 14280 ft | 302 kts | 337° |
| 2026-04-21 08:41 | 51.41301 | -0.01830 | 14867 ft | 302 kts | 338° |
| 2026-04-21 08:41 | 51.43193 | -0.03282 | 15465 ft | 302 kts | 336° |
| 2026-04-21 08:41 | 51.45093 | -0.04738 | 16080 ft | 303 kts | 336° |
| 2026-04-21 08:41 | 51.46991 | -0.06191 | 16701 ft | 303 kts | 336° |
| 2026-04-21 08:42 | 51.48903 | -0.07658 | 17348 ft | 303 kts | 336° |
| 2026-04-21 08:42 | 51.50797 | -0.09114 | 17995 ft | 305 kts | 335° |
| 2026-04-21 08:42 | 51.52722 | -0.10598 | 18650 ft | 307 kts | 335° |
| 2026-04-21 08:42 | 51.54662 | -0.12098 | 19237 ft | 310 kts | 334° |
| 2026-04-21 08:43 | 51.56616 | -0.13608 | 19911 ft | 311 kts | 334° |
| 2026-04-21 08:43 | 51.58555 | -0.15103 | 20514 ft | 313 kts | 334° |
| 2026-04-21 08:43 | 51.60534 | -0.16631 | 21130 ft | 315 kts | 333° |
| 2026-04-21 08:43 | 51.62521 | -0.18173 | 21781 ft | 317 kts | 333° |
| 2026-04-21 08:44 | 51.64489 | -0.19704 | 22421 ft | 318 kts | 333° |
| 2026-04-21 08:44 | 51.66510 | -0.21277 | 23081 ft | 319 kts | 332° |
| 2026-04-21 08:44 | 51.68491 | -0.22817 | 23752 ft | 320 kts | 332° |
| 2026-04-21 08:44 | 51.70501 | -0.24382 | 24360 ft | 321 kts | 332° |
| 2026-04-21 08:45 | 51.72525 | -0.25960 | 24937 ft | 322 kts | 331° |
| 2026-04-21 08:45 | 51.74524 | -0.27518 | 25509 ft | 323 kts | 331° |
| 2026-04-21 08:45 | 51.76552 | -0.29103 | 26105 ft | 324 kts | 331° |
| 2026-04-21 08:45 | 51.78589 | -0.30699 | 26719 ft | 325 kts | 330° |
| 2026-04-21 08:46 | 51.80634 | -0.32300 | 27227 ft | 327 kts | 330° |
| 2026-04-21 08:46 | 51.82699 | -0.33918 | 27840 ft | 330 kts | 331° |
| 2026-04-21 08:46 | 51.84762 | -0.35540 | 28007 ft | 335 kts | 330° |
| 2026-04-21 08:47 | 51.88972 | -0.38847 | 28038 ft | 337 kts | 331° |
| 2026-04-21 08:47 | 51.93192 | -0.42164 | 28038 ft | 337 kts | 331° |
| 2026-04-21 08:48 | 51.97416 | -0.45487 | 28039 ft | 337 kts | 330° |
| 2026-04-21 08:48 | 52.01638 | -0.48817 | 28042 ft | 337 kts | 331° |
| 2026-04-21 08:49 | 52.05834 | -0.52142 | 28073 ft | 337 kts | 331° |
| 2026-04-21 08:49 | 52.10059 | -0.55501 | 28052 ft | 338 kts | 331° |
| 2026-04-21 08:50 | 52.14294 | -0.58864 | 28050 ft | 339 kts | 331° |
| 2026-04-21 08:50 | 52.18507 | -0.62226 | 28050 ft | 340 kts | 331° |
| 2026-04-21 08:51 | 52.22754 | -0.65621 | 28047 ft | 340 kts | 331° |
| 2026-04-21 08:51 | 52.27009 | -0.69027 | 28049 ft | 340 kts | 331° |
| 2026-04-21 08:52 | 52.31290 | -0.72469 | 28064 ft | 347 kts | 332° |
| 2026-04-21 08:52 | 52.35648 | -0.75971 | 28063 ft | 349 kts | 332° |
| 2026-04-21 08:53 | 52.39992 | -0.79467 | 28076 ft | 349 kts | 332° |
| 2026-04-21 08:53 | 52.44366 | -0.83000 | 28077 ft | 349 kts | 332° |
| 2026-04-21 08:54 | 52.48710 | -0.86504 | 28085 ft | 349 kts | 332° |
| 2026-04-21 08:54 | 52.53080 | -0.90052 | 28085 ft | 350 kts | 332° |
| 2026-04-21 08:55 | 52.57463 | -0.93620 | 28070 ft | 352 kts | 332° |
| 2026-04-21 08:55 | 52.61857 | -0.97201 | 28036 ft | 353 kts | 332° |
| 2026-04-21 08:56 | 52.66247 | -1.00780 | 28019 ft | 353 kts | 331° |
| 2026-04-21 08:56 | 52.70635 | -1.04376 | 28058 ft | 351 kts | 331° |
| 2026-04-21 08:57 | 52.74974 | -1.07992 | 28121 ft | 349 kts | 329° |
| 2026-04-21 08:57 | 52.79167 | -1.12082 | 28117 ft | 352 kts | 327° |
| 2026-04-21 08:58 | 52.83334 | -1.16404 | 28119 ft | 355 kts | 327° |
| 2026-04-21 08:58 | 52.86842 | -1.20013 | 28120 ft | 357 kts | 327° |
| 2026-04-21 08:59 | 52.91073 | -1.24294 | 28119 ft | 355 kts | 327° |
| 2026-04-21 08:59 | 52.95300 | -1.28552 | 28120 ft | 356 kts | 327° |
| 2026-04-21 09:00 | 52.99521 | -1.32814 | 28114 ft | 356 kts | 327° |
| 2026-04-21 09:00 | 53.03774 | -1.37120 | 28119 ft | 359 kts | 328° |
| 2026-04-21 09:01 | 53.08042 | -1.41460 | 28126 ft | 361 kts | 327° |
| 2026-04-21 09:01 | 53.12330 | -1.45839 | 28125 ft | 363 kts | 327° |
| 2026-04-21 09:02 | 53.16625 | -1.50231 | 28136 ft | 360 kts | 327° |
| 2026-04-21 09:02 | 53.20864 | -1.54576 | 28132 ft | 360 kts | 327° |
| 2026-04-21 09:03 | 53.27261 | -1.61163 | 28140 ft | 362 kts | 327° |
| 2026-04-21 09:03 | 53.31562 | -1.65601 | 28142 ft | 363 kts | 327° |
| 2026-04-21 09:04 | 53.35847 | -1.70032 | 28149 ft | 366 kts | 328° |
| 2026-04-21 09:04 | 53.40176 | -1.74516 | 28149 ft | 365 kts | 327° |
| 2026-04-21 09:05 | 53.44477 | -1.78980 | 28148 ft | 362 kts | 328° |
| 2026-04-21 09:05 | 53.48763 | -1.83440 | 28140 ft | 363 kts | 327° |
| 2026-04-21 09:06 | 53.53063 | -1.87902 | 28135 ft | 363 kts | 327° |
| 2026-04-21 09:06 | 53.57330 | -1.92353 | 28142 ft | 363 kts | 327° |
| 2026-04-21 09:07 | 53.61629 | -1.96867 | 28138 ft | 363 kts | 327° |
| 2026-04-21 09:07 | 53.65901 | -2.01369 | 28146 ft | 363 kts | 327° |
| 2026-04-21 09:08 | 53.70193 | -2.05890 | 28148 ft | 363 kts | 327° |
| 2026-04-21 09:08 | 53.74520 | -2.10321 | 28156 ft | 368 kts | 332° |
| 2026-04-21 09:09 | 53.79251 | -2.13637 | 28153 ft | 367 kts | 336° |
| 2026-04-21 09:09 | 53.84010 | -2.16880 | 28154 ft | 369 kts | 337° |
| 2026-04-21 09:10 | 53.88757 | -2.20130 | 28162 ft | 367 kts | 336° |
| 2026-04-21 09:10 | 53.93480 | -2.23366 | 28151 ft | 368 kts | 337° |
| 2026-04-21 09:11 | 53.98249 | -2.26642 | 27829 ft | 369 kts | 338° |
| 2026-04-21 09:11 | 54.00651 | -2.28296 | 27569 ft | 374 kts | 338° |
| 2026-04-21 09:11 | 54.03072 | -2.29962 | 27303 ft | 376 kts | 338° |
| 2026-04-21 09:12 | 54.05492 | -2.31632 | 27042 ft | 376 kts | 339° |
| 2026-04-21 09:12 | 54.07920 | -2.33310 | 26779 ft | 377 kts | 339° |
| 2026-04-21 09:12 | 54.10339 | -2.34984 | 26520 ft | 379 kts | 339° |
| 2026-04-21 09:12 | 54.12787 | -2.36680 | 26276 ft | 379 kts | 339° |
| 2026-04-21 09:13 | 54.15225 | -2.38370 | 26017 ft | 377 kts | 340° |
| 2026-04-21 09:13 | 54.17650 | -2.40054 | 25763 ft | 377 kts | 339° |
| 2026-04-21 09:13 | 54.20087 | -2.41749 | 25502 ft | 379 kts | 340° |
| 2026-04-21 09:13 | 54.22529 | -2.43450 | 25264 ft | 377 kts | 341° |
| 2026-04-21 09:14 | 54.24961 | -2.45146 | 25021 ft | 376 kts | 340° |
| 2026-04-21 09:14 | 54.27385 | -2.46837 | 24775 ft | 375 kts | 340° |
| 2026-04-21 09:14 | 54.29775 | -2.48509 | 24532 ft | 375 kts | 341° |
| 2026-04-21 09:14 | 54.32198 | -2.50202 | 24302 ft | 374 kts | 341° |
| 2026-04-21 09:15 | 54.34605 | -2.51885 | 24064 ft | 373 kts | 341° |
| 2026-04-21 09:15 | 54.37014 | -2.53573 | 23782 ft | 372 kts | 341° |
| 2026-04-21 09:15 | 54.39409 | -2.55257 | 23499 ft | 371 kts | 341° |
| 2026-04-21 09:15 | 54.41790 | -2.56935 | 23224 ft | 369 kts | 341° |
| 2026-04-21 09:16 | 54.44167 | -2.58613 | 22949 ft | 367 kts | 341° |
| 2026-04-21 09:16 | 54.46520 | -2.60277 | 22673 ft | 365 kts | 341° |
| 2026-04-21 09:16 | 54.48841 | -2.61919 | 22392 ft | 363 kts | 341° |
| 2026-04-21 09:16 | 54.51171 | -2.63572 | 22119 ft | 360 kts | 341° |
| 2026-04-21 09:17 | 54.53485 | -2.65210 | 21864 ft | 359 kts | 341° |
| 2026-04-21 09:17 | 54.55796 | -2.66841 | 21594 ft | 357 kts | 341° |
| 2026-04-21 09:17 | 54.58098 | -2.68467 | 21330 ft | 355 kts | 341° |
| 2026-04-21 09:17 | 54.60393 | -2.70090 | 21077 ft | 358 kts | 341° |
| 2026-04-21 09:18 | 54.62698 | -2.71724 | 20821 ft | 358 kts | 340° |
| 2026-04-21 09:18 | 54.64977 | -2.73345 | 20568 ft | 356 kts | 340° |
| 2026-04-21 09:18 | 54.67269 | -2.74982 | 20312 ft | 355 kts | 340° |
| 2026-04-21 09:18 | 54.69549 | -2.76615 | 20060 ft | 354 kts | 340° |
| 2026-04-21 09:19 | 54.71827 | -2.78245 | 19804 ft | 352 kts | 340° |
| 2026-04-21 09:19 | 54.74086 | -2.79863 | 19565 ft | 350 kts | 340° |
| 2026-04-21 09:19 | 54.76305 | -2.81450 | 19313 ft | 348 kts | 340° |
| 2026-04-21 09:19 | 54.78547 | -2.83052 | 19067 ft | 347 kts | 340° |
| 2026-04-21 09:20 | 54.80781 | -2.84654 | 18825 ft | 346 kts | 340° |
| 2026-04-21 09:20 | 54.83003 | -2.86256 | 18560 ft | 344 kts | 340° |
| 2026-04-21 09:20 | 54.85209 | -2.87850 | 18285 ft | 343 kts | 340° |
| 2026-04-21 09:20 | 54.87381 | -2.89417 | 18014 ft | 341 kts | 340° |
| 2026-04-21 09:21 | 54.89578 | -2.91103 | 17739 ft | 340 kts | 338° |
| 2026-04-21 09:21 | 54.91686 | -2.92858 | 17472 ft | 339 kts | 336° |
| 2026-04-21 09:21 | 54.93800 | -2.94688 | 17209 ft | 338 kts | 336° |
| 2026-04-21 09:21 | 54.95900 | -2.96524 | 16944 ft | 336 kts | 336° |
| 2026-04-21 09:22 | 54.97991 | -2.98350 | 16664 ft | 335 kts | 336° |
| 2026-04-21 09:22 | 55.00075 | -3.00158 | 16400 ft | 333 kts | 337° |
| 2026-04-21 09:22 | 55.02129 | -3.01929 | 16149 ft | 332 kts | 337° |
| 2026-04-21 09:22 | 55.04209 | -3.03714 | 15899 ft | 331 kts | 337° |
| 2026-04-21 09:23 | 55.06279 | -3.05485 | 15645 ft | 329 kts | 337° |
| 2026-04-21 09:23 | 55.08334 | -3.07237 | 15395 ft | 328 kts | 337° |
| 2026-04-21 09:23 | 55.10358 | -3.08968 | 15154 ft | 327 kts | 337° |
| 2026-04-21 09:23 | 55.12399 | -3.10714 | 14908 ft | 326 kts | 337° |
| 2026-04-21 09:24 | 55.14434 | -3.12460 | 14658 ft | 324 kts | 337° |
| 2026-04-21 09:24 | 55.16457 | -3.14199 | 14413 ft | 323 kts | 337° |
| 2026-04-21 09:24 | 55.18470 | -3.15936 | 14154 ft | 322 kts | 337° |
| 2026-04-21 09:24 | 55.20475 | -3.17671 | 13882 ft | 321 kts | 337° |
| 2026-04-21 09:25 | 55.22474 | -3.19399 | 13596 ft | 319 kts | 337° |
| 2026-04-21 09:25 | 55.24446 | -3.21107 | 13329 ft | 318 kts | 337° |
| 2026-04-21 09:25 | 55.26431 | -3.22830 | 13059 ft | 317 kts | 337° |
| 2026-04-21 09:25 | 55.28408 | -3.24543 | 12792 ft | 316 kts | 337° |
| 2026-04-21 09:26 | 55.30376 | -3.26249 | 12531 ft | 315 kts | 337° |
| 2026-04-21 09:26 | 55.32337 | -3.27949 | 12269 ft | 314 kts | 337° |
| 2026-04-21 09:26 | 55.34289 | -3.29649 | 12018 ft | 313 kts | 337° |
| 2026-04-21 09:26 | 55.36236 | -3.31342 | 11761 ft | 311 kts | 337° |
| 2026-04-21 09:27 | 55.38159 | -3.33008 | 11513 ft | 311 kts | 337° |
| 2026-04-21 09:27 | 55.40091 | -3.34685 | 11260 ft | 308 kts | 337° |
| 2026-04-21 09:27 | 55.42009 | -3.36359 | 11005 ft | 306 kts | 337° |
| 2026-04-21 09:27 | 55.43914 | -3.38027 | 10763 ft | 305 kts | 336° |
| 2026-04-21 09:28 | 55.45811 | -3.39687 | 10511 ft | 304 kts | 337° |
| 2026-04-21 09:28 | 55.47705 | -3.41345 | 10235 ft | 303 kts | 336° |
| 2026-04-21 09:28 | 55.49591 | -3.43000 | 9959 ft | 302 kts | 336° |
| 2026-04-21 09:28 | 55.51468 | -3.44650 | 9691 ft | 300 kts | 336° |
| 2026-04-21 09:29 | 55.53332 | -3.46292 | 9427 ft | 298 kts | 336° |
| 2026-04-21 09:29 | 55.55185 | -3.47925 | 9155 ft | 297 kts | 337° |
| 2026-04-21 09:29 | 55.57016 | -3.49538 | 8892 ft | 296 kts | 336° |
| 2026-04-21 09:29 | 55.58849 | -3.51154 | 8622 ft | 289 kts | 337° |
| 2026-04-21 09:30 | 55.60629 | -3.52727 | 8357 ft | 282 kts | 337° |
| 2026-04-21 09:30 | 55.62364 | -3.54259 | 8096 ft | 274 kts | 337° |
| 2026-04-21 09:30 | 55.64029 | -3.55761 | 7864 ft | 269 kts | 334° |
| 2026-04-21 09:30 | 55.65593 | -3.57550 | 7616 ft | 265 kts | 327° |
| 2026-04-21 09:31 | 55.66990 | -3.59645 | 7358 ft | 260 kts | 319° |
| 2026-04-21 09:31 | 55.68270 | -3.61875 | 7108 ft | 256 kts | 317° |
| 2026-04-21 09:31 | 55.69523 | -3.64098 | 6860 ft | 252 kts | 319° |
| 2026-04-21 09:31 | 55.70807 | -3.66187 | 6593 ft | 248 kts | 322° |
| 2026-04-21 09:32 | 55.72109 | -3.68169 | 6329 ft | 245 kts | 323° |
| 2026-04-21 09:32 | 55.73396 | -3.70067 | 6072 ft | 242 kts | 324° |
| 2026-04-21 09:32 | 55.74694 | -3.71959 | 5812 ft | 240 kts | 324° |
| 2026-04-21 09:32 | 55.75969 | -3.73874 | 5535 ft | 238 kts | 323° |
| 2026-04-21 09:33 | 55.77352 | -3.75400 | 5279 ft | 227 kts | 344° |
| 2026-04-21 09:33 | 55.78812 | -3.75982 | 5211 ft | 210 kts | 3° |
| 2026-04-21 09:33 | 55.80198 | -3.75780 | 5124 ft | 191 kts | 18° |
| 2026-04-21 09:33 | 55.81398 | -3.74972 | 4955 ft | 179 kts | 34° |
| 2026-04-21 09:34 | 55.82369 | -3.73702 | 4769 ft | 168 kts | 47° |
| 2026-04-21 09:34 | 55.83075 | -3.72135 | 4556 ft | 155 kts | 61° |
| 2026-04-21 09:34 | 55.83620 | -3.70548 | 4371 ft | 148 kts | 62° |
| 2026-04-21 09:34 | 55.84150 | -3.69010 | 4168 ft | 146 kts | 61° |
| 2026-04-21 09:35 | 55.84685 | -3.67455 | 3971 ft | 146 kts | 61° |
| 2026-04-21 09:35 | 55.85216 | -3.65911 | 3756 ft | 146 kts | 62° |
| 2026-04-21 09:35 | 55.85739 | -3.64387 | 3563 ft | 147 kts | 61° |
| 2026-04-21 09:35 | 55.86267 | -3.62847 | 3357 ft | 144 kts | 61° |
| 2026-04-21 09:36 | 55.86788 | -3.61328 | 3161 ft | 143 kts | 61° |
| 2026-04-21 09:36 | 55.87307 | -3.59813 | 2960 ft | 143 kts | 61° |
| 2026-04-21 09:36 | 55.87825 | -3.58301 | 2758 ft | 142 kts | 60° |
| 2026-04-21 09:36 | 55.88341 | -3.56791 | 2569 ft | 142 kts | 60° |
| 2026-04-21 09:37 | 55.88851 | -3.55299 | 2363 ft | 142 kts | 61° |
| 2026-04-21 09:37 | 55.89364 | -3.53798 | 2162 ft | 141 kts | 60° |
| 2026-04-21 09:37 | 55.89879 | -3.52292 | 1961 ft | 142 kts | 59° |
| 2026-04-21 09:37 | 55.90389 | -3.50797 | 1765 ft | 138 kts | 60° |
| 2026-04-21 09:38 | 55.90859 | -3.49421 | 1583 ft | 123 kts | 62° |
| 2026-04-21 09:38 | 55.91289 | -3.48162 | 1417 ft | 119 kts | 62° |
| 2026-04-21 09:38 | 55.91713 | -3.46914 | 1248 ft | 118 kts | 60° |
| 2026-04-21 09:38 | 55.92142 | -3.45662 | 1095 ft | 116 kts | 61° |
| 2026-04-21 09:39 | 55.92569 | -3.44446 | 891 ft | 116 kts | 60° |
| 2026-04-21 09:39 | 55.92980 | -3.43243 | 740 ft | 112 kts | 60° |
| 2026-04-21 09:39 | 55.93382 | -3.42009 | 578 ft | 117 kts | 59° |
| 2026-04-21 09:39 | 55.93804 | -3.40773 | 386 ft | 116 kts | 59° |
| 2026-04-21 09:40 | 55.94228 | -3.39533 | 238 ft | 115 kts | 59° |
| 2026-04-21 09:40 | 55.94639 | -3.38322 | 122 ft | 105 kts | 58° |
| 2026-04-21 09:40 | 55.94903 | -3.37534 | 109 ft | 44 kts | 60° |
| 2026-04-21 09:40 | 55.95043 | -3.37115 | 107 ft | 36 kts | 59° |
| 2026-04-21 09:41 | 55.95160 | -3.36771 | 109 ft | 30 kts | 59° |
| 2026-04-21 09:41 | 55.95255 | -3.36488 | 103 ft | 19 kts | 63° |
| 2026-04-21 09:41 | 55.95199 | -3.36368 | 102 ft | 13 kts | 163° |
| 2026-04-21 09:41 | 55.95143 | -3.36270 | 104 ft | 12 kts | 112° |
| 2026-04-21 09:42 | 55.95116 | -3.36120 | 104 ft | 13 kts | 107° |
| 2026-04-21 09:42 | 55.95087 | -3.35966 | 106 ft | 13 kts | 110° |
| 2026-04-21 09:42 | 55.95038 | -3.35827 | 106 ft | 11 kts | 147° |
| 2026-04-21 09:42 | 55.94968 | -3.35861 | 107 ft | 10 kts | 184° |
| 2026-04-21 09:43 | 55.94910 | -3.35788 | 108 ft | 12 kts | 123° |
| 2026-04-21 09:43 | 55.94881 | -3.35699 | 108 ft | 13 kts | 118° |
| 2026-04-21 09:43 | 55.94838 | -3.35646 | 107 ft | 9 kts | 197° |
| 2026-04-21 09:43 | 55.94804 | -3.35676 | 106 ft | 4 kts | 208° |
| 2026-04-21 09:44 | 55.94799 | -3.35681 | 107 ft | 0 kts | 208° |